Terminal Aerodrome Forecast
Issued by NWS

Home | Current Version | Previous Version | Text Only | Print | Product List | Glossary On
Versions: 1 2 3 4 5 6 7 8 9 10 11 12 13 14 15 16 17 18 19 20 21 22 23 24 25
000
FTUS41 KBOX 301140
TAFHYA
TAF
KHYA 301140Z 3012/3112 15007KT P6SM OVC020
     FM301500 16007KT 3SM -RA OVC020
     FM301800 19004KT 2SM -RA OVC008
     FM302000 29007KT 2SM -RA OVC008
     FM302100 33008KT 2SM -RA OVC008
     FM302200 33009KT 2SM -SNRA OVC008
     FM302300 32010G18KT P6SM OVC008
     FM310100 32014G25KT P6SM OVC015=

USA.gov is the U.S. government's official web portal to all federal, state and local government web resources and services.